createdAt,value
2023-03-02T00:01:51.305Z,17.70
2023-03-02T00:27:48.640Z,21.90
2023-03-02T00:32:18.025Z,18.60
2023-03-02T00:36:28.517Z,20.90
2023-03-02T00:54:48.731Z,19.10
2023-03-02T00:59:17.880Z,18.30
2023-03-02T01:16:31.375Z,13.70
2023-03-02T01:21:01.052Z,12.70
2023-03-02T01:25:11.136Z,12.80
2023-03-02T01:33:17.512Z,14.20
2023-03-02T01:37:38.850Z,13.60
2023-03-02T01:42:07.637Z,13.40
2023-03-02T01:46:21.728Z,13.10
2023-03-02T01:50:45.495Z,12.40
2023-03-02T02:24:43.552Z,13.80
2023-03-02T02:29:08.124Z,13.40
2023-03-02T02:33:37.240Z,12.00
2023-03-02T02:38:21.488Z,9.20
2023-03-02T02:43:02.546Z,10.70
2023-03-02T02:47:32.132Z,11.50
2023-03-02T02:52:01.483Z,8.50
2023-03-02T02:56:30.656Z,12.70
2023-03-02T03:00:51.148Z,9.00
2023-03-02T03:27:56.877Z,10.20
2023-03-02T03:32:26.050Z,9.40
2023-03-02T03:36:57.393Z,8.40
2023-03-02T03:59:12.945Z,11.50
2023-03-02T04:03:53.129Z,9.50
2023-03-02T04:08:21.986Z,9.90
2023-03-02T04:12:44.156Z,9.70
2023-03-02T04:38:29.802Z,10.80
2023-03-02T04:42:59.306Z,10.30
2023-03-02T04:47:19.952Z,11.10
2023-03-02T04:51:48.330Z,11.50
2023-03-02T05:17:18.291Z,9.30
2023-03-02T05:21:47.908Z,10.30
2023-03-02T05:25:54.567Z,10.00
2023-03-02T05:30:23.057Z,8.30
2023-03-02T05:34:16.401Z,11.90
2023-03-02T05:37:10.878Z,20.70
2023-03-02T05:39:54.223Z,12.90
2023-03-02T05:43:43.637Z,12.80
2023-03-02T06:14:28.923Z,12.40
2023-03-02T06:18:03.824Z,15.10
2023-03-02T06:21:56.644Z,22.20
2023-03-02T06:25:30.659Z,28.90
2023-03-02T06:28:58.939Z,14.00
2023-03-02T06:33:06.528Z,12.10
2023-03-02T06:36:42.854Z,14.70
2023-03-02T06:40:07.429Z,13.10
2023-03-02T06:43:35.637Z,13.80
2023-03-02T06:47:11.982Z,18.40
2023-03-02T06:51:24.302Z,17.80
2023-03-02T06:54:33.389Z,22.10
2023-03-02T06:57:09.203Z,15.50
2023-03-02T07:01:10.734Z,17.70
2023-03-02T07:05:10.036Z,13.70
2023-03-02T07:13:01.001Z,14.30
2023-03-02T07:16:16.810Z,12.00
2023-03-02T07:19:42.051Z,13.90
2023-03-02T07:24:02.522Z,22.20
2023-03-02T07:28:05.432Z,20.60
2023-03-02T07:32:27.156Z,17.70
2023-03-02T08:03:51.093Z,21.20
2023-03-02T08:08:10.610Z,18.40
2023-03-02T08:12:34.141Z,17.30
2023-03-02T08:37:39.193Z,15.30
2023-03-02T08:41:44.264Z,13.50
2023-03-02T08:46:14.868Z,22.80
2023-03-02T09:16:40.455Z,10.90
2023-03-02T09:20:44.295Z,10.70
2023-03-02T09:25:12.176Z,12.40
2023-03-02T09:29:34.167Z,13.90
2023-03-02T09:33:57.204Z,11.90
2023-03-02T09:42:43.801Z,15.50
2023-03-02T10:23:05.595Z,14.00
2023-03-02T11:06:12.127Z,7.20
2023-03-02T11:10:42.388Z,7.20
2023-03-02T11:37:00.444Z,7.30
2023-03-02T11:41:28.866Z,8.90
2023-03-02T11:45:54.690Z,7.90
2023-03-02T11:50:16.973Z,7.60
2023-03-02T11:54:22.211Z,7.00
2023-03-02T12:02:54.715Z,7.30
2023-03-02T12:11:41.012Z,6.10
2023-03-02T12:16:03.471Z,6.60
2023-03-02T12:20:36.216Z,6.60
2023-03-02T12:25:11.334Z,7.10
2023-03-02T12:29:53.173Z,7.10
2023-03-02T12:34:25.407Z,5.80
2023-03-02T12:39:05.520Z,5.70
2023-03-02T12:43:36.715Z,6.40
2023-03-02T12:47:54.824Z,6.00
2023-03-02T12:52:19.382Z,6.80
2023-03-02T13:00:24.452Z,6.70
2023-03-02T13:53:28.769Z,8.50
2023-03-02T13:57:58.262Z,7.90
2023-03-02T14:02:11.122Z,6.90
2023-03-02T14:32:29.837Z,8.00
2023-03-02T14:36:50.507Z,8.60
2023-03-02T14:41:19.448Z,7.90
2023-03-02T14:50:11.574Z,7.90
2023-03-02T15:02:49.429Z,9.20
2023-03-02T15:07:18.920Z,8.90
2023-03-02T15:11:02.541Z,9.50
2023-03-02T15:15:31.862Z,9.30
2023-03-02T15:19:44.356Z,9.60
2023-03-02T16:22:35.691Z,19.00
2023-03-02T16:27:09.841Z,19.10
2023-03-02T16:31:48.159Z,17.40
2023-03-02T17:28:38.154Z,19.70
2023-03-02T17:33:08.867Z,19.10
2023-03-02T17:37:35.288Z,19.20
2023-03-02T17:41:59.352Z,19.80
2023-03-02T17:46:03.967Z,21.60
2023-03-02T17:50:33.505Z,21.60
2023-03-02T17:54:55.779Z,23.30
2023-03-02T18:19:21.446Z,25.00
2023-03-02T18:23:50.194Z,26.40
2023-03-02T18:28:19.899Z,26.70
2023-03-02T18:32:40.751Z,26.10
2023-03-02T18:36:55.788Z,27.30
2023-03-02T19:20:18.173Z,41.30
2023-03-02T19:24:40.794Z,36.90
2023-03-02T19:29:10.405Z,31.90
2023-03-02T19:33:42.894Z,27.70
2023-03-02T19:55:07.489Z,36.40
2023-03-02T19:59:36.770Z,33.30
2023-03-02T20:04:08.461Z,35.20
2023-03-02T20:33:58.719Z,39.80
2023-03-02T20:38:05.999Z,37.20
2023-03-02T20:42:28.378Z,39.10
2023-03-02T20:46:45.734Z,41.40
2023-03-02T20:51:14.969Z,43.00
2023-03-02T20:55:24.894Z,41.30
2023-03-02T20:59:54.222Z,41.70
2023-03-02T21:04:24.099Z,40.60
2023-03-02T21:08:45.446Z,42.60
2023-03-02T21:22:09.070Z,31.40
2023-03-02T21:26:31.239Z,27.50
2023-03-02T21:56:50.045Z,27.70
2023-03-02T22:01:19.543Z,22.30
2023-03-02T22:05:49.139Z,26.20
2023-03-02T22:10:18.559Z,26.00
2023-03-02T22:14:34.711Z,28.00
2023-03-02T22:19:05.078Z,25.60
2023-03-02T22:45:36.097Z,27.30
2023-03-02T22:49:56.508Z,25.10
2023-03-02T23:29:19.688Z,26.60
2023-03-02T23:33:49.623Z,25.10
2023-03-02T23:37:56.382Z,21.00
2023-03-02T23:42:20.275Z,15.40
